Time;durP1;ratioP1;P1;durP2;ratioP2;P2;SDS_P1;SDS_P2;PMS_P1;PMS_P2;Temp;Humidity;BMP_temperature;BMP_pressure;BME280_temperature;BME280_humidity;BME280_pressure;Samples;Min_cycle;Max_cycle;Signal;HPM_P1;HPM_P2
2022/04/18 09:05:12;;;;;;;3.15;1.85;;;;;;;17.84;38.01;101875.03;5103011;27;20496;-64
2022/04/18 09:07:55;;;;;;;6.53;2.20;;;;;;;17.65;37.99;101874.69;5090071;28;20080;-65
2022/04/18 09:10:24;;;;;;;5.07;2.22;;;;;;;17.45;38.26;101874.41;5069980;28;20009;-65
2022/04/18 09:12:51;;;;;;;4.80;2.22;;;;;;;17.30;38.61;101867.50;5063540;28;20052;-66
2022/04/18 09:15:37;;;;;;;4.70;1.90;;;;;;;17.33;40.42;101865.44;5068209;28;20078;-65
2022/04/18 09:18:08;;;;;;;3.28;1.60;;;;;;;17.53;38.94;101865.72;5067908;28;20035;-62
2022/04/18 09:21:04;;;;;;;3.00;1.80;;;;;;;17.42;39.69;101863.91;5068433;28;20031;-62
2022/04/18 09:23:33;;;;;;;4.50;2.03;;;;;;;17.15;39.09;101862.31;5068270;28;20032;-62
2022/04/18 09:26:05;;;;;;;6.40;1.80;;;;;;;16.97;39.51;101864.56;5069192;28;20029;-62
2022/04/18 09:28:36;;;;;;;2.55;2.03;;;;;;;16.83;39.67;101862.06;5069317;28;20378;-62
2022/04/18 09:31:23;;;;;;;2.13;1.77;;;;;;;16.75;39.88;101862.59;5072301;28;20032;-62
2022/04/18 09:33:56;;;;;;;2.22;1.70;;;;;;;16.63;39.54;101863.47;5068593;28;20372;-62
2022/04/18 09:36:23;;;;;;;3.30;2.13;;;;;;;16.57;38.88;101861.25;5070778;28;20034;-62
2022/04/18 09:38:51;;;;;;;5.93;1.95;;;;;;;16.53;39.08;101857.06;5071860;28;20028;-62
2022/04/18 09:41:25;;;;;;;5.47;2.05;;;;;;;16.52;39.31;101858.03;5068896;28;20032;-61
2022/04/18 09:43:52;;;;;;;4.55;2.05;;;;;;;16.50;39.77;101851.91;5074502;28;20452;-62
2022/04/18 09:46:18;;;;;;;5.78;1.70;;;;;;;16.48;39.81;101851.16;5070849;28;20029;-61
2022/04/18 09:48:45;;;;;;;1.95;1.80;;;;;;;16.47;40.30;101852.09;5069702;28;20020;-61
2022/04/18 09:51:23;;;;;;;4.60;2.00;;;;;;;16.47;40.39;101844.94;5070886;28;20036;-62
2022/04/18 09:53:57;;;;;;;2.20;1.67;;;;;;;16.46;40.54;101845.03;5071047;28;20020;-62
2022/04/18 09:56:24;;;;;;;5.18;1.60;;;;;;;16.45;40.60;101843.31;5069062;28;20226;-62
2022/04/18 09:58:51;;;;;;;2.95;1.50;;;;;;;16.44;40.84;101844.28;5069662;28;20020;-62
2022/04/18 10:01:17;;;;;;;1.75;1.63;;;;;;;16.45;40.94;101841.50;5067794;28;20055;-62
2022/04/18 10:03:44;;;;;;;4.47;1.55;;;;;;;16.45;41.20;101841.50;5067137;28;20079;-62
2022/04/18 10:06:10;;;;;;;3.60;1.85;;;;;;;16.45;40.91;101830.75;5071751;28;20075;-62
2022/04/18 10:08:37;;;;;;;2.35;1.77;;;;;;;16.46;40.83;101835.13;5068356;28;20036;-62
2022/04/18 10:11:06;;;;;;;4.18;1.73;;;;;;;16.48;40.88;101835.03;5067255;28;20099;-61
2022/04/18 10:13:32;;;;;;;4.82;2.08;;;;;;;16.49;40.79;101832.22;5071413;28;20018;-61
2022/04/18 10:15:59;;;;;;;5.60;1.77;;;;;;;16.50;40.81;101833.09;5058798;28;20028;-62
2022/04/18 10:18:25;;;;;;;5.15;1.67;;;;;;;16.50;40.71;101831.25;5056793;28;20127;-63
2022/04/18 10:21:06;;;;;;;7.28;1.50;;;;;;;16.52;40.84;101828.44;5058200;28;20044;-63
2022/04/18 10:24:19;;;;;;;2.75;1.67;;;;;;;16.53;41.03;101820.28;5057488;28;20040;-62
2022/04/18 10:27:06;;;;;;;51.45;17.83;;;;;;;16.54;40.82;101818.44;5054399;28;20032;-62
2022/04/18 10:29:51;;;;;;;22.25;8.35;;;;;;;16.59;41.20;101822.50;5057436;28;20095;-62
2022/04/18 10:32:24;;;;;;;22.30;7.07;;;;;;;16.62;41.25;101816.06;5057681;28;20024;-62
2022/04/18 10:34:52;;;;;;;15.48;5.22;;;;;;;16.72;39.62;101811.72;5055656;28;20035;-68
2022/04/18 10:37:25;;;;;;;16.90;5.63;;;;;;;16.77;40.92;101803.28;5010924;28;20140;-68
2022/04/18 10:40:03;;;;;;;13.57;5.22;;;;;;;16.80;40.82;101806.59;5013573;28;20037;-67
2022/04/18 10:42:37;;;;;;;11.57;4.68;;;;;;;16.84;41.07;101811.78;5012781;28;20013;-66
2022/04/18 10:45:11;;;;;;;8.18;4.38;;;;;;;16.85;41.11;101811.69;5014077;28;20030;-67
2022/04/18 10:48:05;;;;;;;12.57;4.25;;;;;;;16.89;40.98;101804.25;5013119;28;20028;-68
2022/04/18 10:51:43;;;;;;;9.80;3.92;;;;;;;16.99;40.20;101799.88;5108425;27;20461;-61
